NKS914 KEWR-KDTW
Flight info
| Callsign | NKS914 |
|---|---|
| Flight time | N/A |
| Altitude | 34000 |
| Route | GAYEL J95 CFB TRAAD JACCI FERRL2 |
| Aircraft | A321/M-SDE3FGHIRWXYZ/LB1 |
Departure
| Time | 2026-05-06 10:11 |
|---|---|
| Airport | Newark Liberty International Airport (KEWR) |
Arrival
| Time | N/A |
|---|---|
| Airport | Detroit Metropolitan Wayne County Airport (KDTW) |
| Time | Latitude | Longitude | Altitude | Speed | Heading |
|---|---|---|---|---|---|
| 2026-05-06 10:00 | 40.68861 | -74.17672 | 24 ft | 4 kts | 206° |
| 2026-05-06 10:00 | 40.68879 | -74.17660 | 22 ft | 4 kts | 194° |
| 2026-05-06 10:01 | 40.68894 | -74.17659 | 22 ft | 4 kts | 154° |
| 2026-05-06 10:01 | 40.68914 | -74.17675 | 26 ft | 4 kts | 147° |
| 2026-05-06 10:01 | 40.68922 | -74.17682 | 26 ft | 0 kts | 147° |
| 2026-05-06 10:04 | 40.68917 | -74.17677 | 26 ft | 4 kts | 140° |
| 2026-05-06 10:04 | 40.68895 | -74.17631 | 22 ft | 7 kts | 116° |
| 2026-05-06 10:05 | 40.68872 | -74.17571 | 22 ft | 8 kts | 116° |
| 2026-05-06 10:05 | 40.68846 | -74.17503 | 22 ft | 9 kts | 116° |
| 2026-05-06 10:05 | 40.68819 | -74.17427 | 22 ft | 10 kts | 116° |
| 2026-05-06 10:05 | 40.68789 | -74.17343 | 22 ft | 10 kts | 107° |
| 2026-05-06 10:06 | 40.68831 | -74.17283 | 23 ft | 10 kts | 25° |
| 2026-05-06 10:06 | 40.68897 | -74.17242 | 22 ft | 11 kts | 25° |
| 2026-05-06 10:06 | 40.68970 | -74.17196 | 22 ft | 12 kts | 25° |
| 2026-05-06 10:06 | 40.69052 | -74.17144 | 21 ft | 14 kts | 26° |
| 2026-05-06 10:07 | 40.69139 | -74.17088 | 22 ft | 14 kts | 26° |
| 2026-05-06 10:07 | 40.69228 | -74.17031 | 22 ft | 15 kts | 26° |
| 2026-05-06 10:07 | 40.69321 | -74.16972 | 23 ft | 15 kts | 26° |
| 2026-05-06 10:07 | 40.69417 | -74.16911 | 22 ft | 16 kts | 26° |
| 2026-05-06 10:08 | 40.69517 | -74.16848 | 22 ft | 16 kts | 26° |
| 2026-05-06 10:08 | 40.69622 | -74.16781 | 22 ft | 17 kts | 26° |
| 2026-05-06 10:08 | 40.69732 | -74.16711 | 22 ft | 18 kts | 26° |
| 2026-05-06 10:08 | 40.69839 | -74.16642 | 21 ft | 17 kts | 25° |
| 2026-05-06 10:09 | 40.69938 | -74.16579 | 23 ft | 15 kts | 26° |
| 2026-05-06 10:09 | 40.70029 | -74.16521 | 22 ft | 14 kts | 26° |
| 2026-05-06 10:09 | 40.70063 | -74.16439 | 20 ft | 12 kts | 92° |
| 2026-05-06 10:09 | 40.70010 | -74.16375 | 19 ft | 12 kts | 182° |
| 2026-05-06 10:10 | 40.69965 | -74.16403 | 20 ft | 0 kts | 206° |
| 2026-05-06 10:10 | 40.69921 | -74.16430 | 21 ft | 31 kts | 206° |
| 2026-05-06 10:10 | 40.69495 | -74.16701 | 23 ft | 106 kts | 206° |
| 2026-05-06 10:11 | 40.68617 | -74.17259 | 46 ft | 168 kts | 204° |
| 2026-05-06 10:11 | 40.67556 | -74.17923 | 894 ft | 167 kts | 201° |
| 2026-05-06 10:11 | 40.66402 | -74.18112 | 1723 ft | 168 kts | 187° |
| 2026-05-06 10:11 | 40.65209 | -74.18156 | 1963 ft | 177 kts | 202° |
| 2026-05-06 10:12 | 40.64090 | -74.18970 | 2124 ft | 194 kts | 213° |
| 2026-05-06 10:12 | 40.62851 | -74.19877 | 2437 ft | 213 kts | 212° |